sensor_id;sensor_type;location;lat;lon;timestamp;P1;durP1;ratioP1;P2;durP2;ratioP2
75061;SDS011;63641;46.526;24.612;2023-02-28T00:01:12;12.80;;;10.05;;
75061;SDS011;63641;46.526;24.612;2023-02-28T00:03:40;13.00;;;9.93;;
75061;SDS011;63641;46.526;24.612;2023-02-28T00:06:07;12.77;;;10.43;;
75061;SDS011;63641;46.526;24.612;2023-02-28T00:08:36;12.85;;;10.18;;
75061;SDS011;63641;46.526;24.612;2023-02-28T00:11:03;13.45;;;10.98;;
75061;SDS011;63641;46.526;24.612;2023-02-28T00:13:41;13.60;;;10.02;;
75061;SDS011;63641;46.526;24.612;2023-02-28T00:16:17;12.55;;;10.13;;
75061;SDS011;63641;46.526;24.612;2023-02-28T00:18:46;13.82;;;10.77;;
75061;SDS011;63641;46.526;24.612;2023-02-28T00:21:17;14.82;;;10.25;;
75061;SDS011;63641;46.526;24.612;2023-02-28T00:23:44;13.48;;;10.73;;
75061;SDS011;63641;46.526;24.612;2023-02-28T00:26:11;13.57;;;10.23;;
75061;SDS011;63641;46.526;24.612;2023-02-28T00:28:38;14.13;;;10.30;;
75061;SDS011;63641;46.526;24.612;2023-02-28T00:31:05;13.88;;;10.52;;
75061;SDS011;63641;46.526;24.612;2023-02-28T00:33:32;12.05;;;9.88;;
75061;SDS011;63641;46.526;24.612;2023-02-28T00:36:07;12.52;;;9.48;;
75061;SDS011;63641;46.526;24.612;2023-02-28T00:38:36;15.93;;;10.25;;
75061;SDS011;63641;46.526;24.612;2023-02-28T00:41:03;12.60;;;9.50;;
75061;SDS011;63641;46.526;24.612;2023-02-28T00:43:34;13.02;;;10.02;;
75061;SDS011;63641;46.526;24.612;2023-02-28T00:46:03;11.48;;;9.82;;
75061;SDS011;63641;46.526;24.612;2023-02-28T00:48:30;15.10;;;10.60;;
75061;SDS011;63641;46.526;24.612;2023-02-28T00:50:57;13.30;;;10.23;;
75061;SDS011;63641;46.526;24.612;2023-02-28T00:53:24;12.60;;;10.23;;
75061;SDS011;63641;46.526;24.612;2023-02-28T00:55:51;11.55;;;9.45;;
75061;SDS011;63641;46.526;24.612;2023-02-28T00:58:18;11.52;;;8.88;;
75061;SDS011;63641;46.526;24.612;2023-02-28T01:00:46;12.98;;;10.45;;
75061;SDS011;63641;46.526;24.612;2023-02-28T01:03:16;11.88;;;9.68;;
75061;SDS011;63641;46.526;24.612;2023-02-28T01:05:44;14.45;;;10.60;;
75061;SDS011;63641;46.526;24.612;2023-02-28T01:08:11;13.57;;;9.90;;
75061;SDS011;63641;46.526;24.612;2023-02-28T01:10:38;13.68;;;9.57;;
75061;SDS011;63641;46.526;24.612;2023-02-28T01:13:05;13.98;;;9.68;;
75061;SDS011;63641;46.526;24.612;2023-02-28T01:15:32;12.55;;;9.90;;
75061;SDS011;63641;46.526;24.612;2023-02-28T01:17:59;12.88;;;9.50;;
75061;SDS011;63641;46.526;24.612;2023-02-28T01:20:25;14.02;;;9.55;;
75061;SDS011;63641;46.526;24.612;2023-02-28T01:22:52;11.68;;;9.63;;
75061;SDS011;63641;46.526;24.612;2023-02-28T01:25:19;12.70;;;10.00;;
75061;SDS011;63641;46.526;24.612;2023-02-28T01:27:46;12.48;;;9.88;;
75061;SDS011;63641;46.526;24.612;2023-02-28T01:30:13;12.07;;;9.23;;
75061;SDS011;63641;46.526;24.612;2023-02-28T01:32:40;11.77;;;8.65;;
75061;SDS011;63641;46.526;24.612;2023-02-28T01:35:07;13.57;;;9.90;;
75061;SDS011;63641;46.526;24.612;2023-02-28T01:37:34;15.85;;;10.30;;
75061;SDS011;63641;46.526;24.612;2023-02-28T01:40:00;11.77;;;9.18;;
75061;SDS011;63641;46.526;24.612;2023-02-28T01:42:27;12.25;;;9.60;;
75061;SDS011;63641;46.526;24.612;2023-02-28T01:45:02;13.73;;;9.68;;
75061;SDS011;63641;46.526;24.612;2023-02-28T01:47:49;14.23;;;10.20;;
75061;SDS011;63641;46.526;24.612;2023-02-28T01:50:19;14.88;;;10.55;;
75061;SDS011;63641;46.526;24.612;2023-02-28T01:52:49;14.57;;;10.38;;
75061;SDS011;63641;46.526;24.612;2023-02-28T01:55:18;14.98;;;10.05;;
75061;SDS011;63641;46.526;24.612;2023-02-28T01:57:48;14.15;;;10.57;;
75061;SDS011;63641;46.526;24.612;2023-02-28T02:00:19;15.63;;;10.27;;
75061;SDS011;63641;46.526;24.612;2023-02-28T02:02:49;14.05;;;9.70;;
75061;SDS011;63641;46.526;24.612;2023-02-28T02:05:21;16.77;;;10.80;;
75061;SDS011;63641;46.526;24.612;2023-02-28T02:07:52;16.58;;;11.75;;
75061;SDS011;63641;46.526;24.612;2023-02-28T02:27:51;18.27;;;11.85;;
75061;SDS011;63641;46.526;24.612;2023-02-28T02:30:46;21.95;;;11.55;;
75061;SDS011;63641;46.526;24.612;2023-02-28T02:33:43;17.77;;;11.77;;
75061;SDS011;63641;46.526;24.612;2023-02-28T02:36:42;20.85;;;11.90;;
75061;SDS011;63641;46.526;24.612;2023-02-28T02:42:11;18.13;;;11.95;;
75061;SDS011;63641;46.526;24.612;2023-02-28T02:47:14;20.55;;;12.07;;
75061;SDS011;63641;46.526;24.612;2023-02-28T02:49:45;20.27;;;12.35;;
75061;SDS011;63641;46.526;24.612;2023-02-28T02:52:18;21.25;;;13.68;;
75061;SDS011;63641;46.526;24.612;2023-02-28T02:54:48;21.70;;;12.68;;
75061;SDS011;63641;46.526;24.612;2023-02-28T02:59:59;19.15;;;11.93;;
75061;SDS011;63641;46.526;24.612;2023-02-28T03:02:28;18.98;;;11.70;;
75061;SDS011;63641;46.526;24.612;2023-02-28T03:05:01;20.73;;;12.27;;
75061;SDS011;63641;46.526;24.612;2023-02-28T03:07:33;20.10;;;12.48;;
75061;SDS011;63641;46.526;24.612;2023-02-28T03:10:00;17.95;;;11.65;;
75061;SDS011;63641;46.526;24.612;2023-02-28T03:12:32;24.90;;;12.27;;
75061;SDS011;63641;46.526;24.612;2023-02-28T03:15:26;329.15;;;28.92;;
75061;SDS011;63641;46.526;24.612;2023-02-28T03:18:10;19.52;;;11.77;;
75061;SDS011;63641;46.526;24.612;2023-02-28T03:21:25;21.48;;;11.48;;
75061;SDS011;63641;46.526;24.612;2023-02-28T03:26:28;19.55;;;12.10;;
75061;SDS011;63641;46.526;24.612;2023-02-28T03:29:13;23.58;;;12.40;;
75061;SDS011;63641;46.526;24.612;2023-02-28T03:34:52;21.08;;;12.38;;
75061;SDS011;63641;46.526;24.612;2023-02-28T03:37:29;21.17;;;12.10;;
75061;SDS011;63641;46.526;24.612;2023-02-28T03:40:14;17.48;;;12.15;;
75061;SDS011;63641;46.526;24.612;2023-02-28T03:42:47;23.08;;;11.98;;
75061;SDS011;63641;46.526;24.612;2023-02-28T03:45:18;20.83;;;13.25;;
75061;SDS011;63641;46.526;24.612;2023-02-28T03:47:57;19.75;;;12.07;;
75061;SDS011;63641;46.526;24.612;2023-02-28T03:50:39;21.77;;;12.38;;
75061;SDS011;63641;46.526;24.612;2023-02-28T03:55:41;24.10;;;12.57;;
75061;SDS011;63641;46.526;24.612;2023-02-28T03:58:13;22.10;;;12.68;;
75061;SDS011;63641;46.526;24.612;2023-02-28T04:00:43;23.25;;;12.68;;
75061;SDS011;63641;46.526;24.612;2023-02-28T04:03:14;20.55;;;12.57;;
75061;SDS011;63641;46.526;24.612;2023-02-28T04:05:49;20.45;;;12.48;;
75061;SDS011;63641;46.526;24.612;2023-02-28T04:08:18;23.15;;;13.45;;
75061;SDS011;63641;46.526;24.612;2023-02-28T04:10:47;22.50;;;12.68;;
75061;SDS011;63641;46.526;24.612;2023-02-28T04:13:20;326.88;;;23.23;;
75061;SDS011;63641;46.526;24.612;2023-02-28T04:15:47;67.22;;;14.73;;
75061;SDS011;63641;46.526;24.612;2023-02-28T04:18:14;21.42;;;11.73;;
75061;SDS011;63641;46.526;24.612;2023-02-28T04:20:40;23.73;;;14.30;;
75061;SDS011;63641;46.526;24.612;2023-02-28T04:23:07;278.08;;;24.42;;
75061;SDS011;63641;46.526;24.612;2023-02-28T04:25:34;145.65;;;17.77;;
75061;SDS011;63641;46.526;24.612;2023-02-28T04:28:00;101.90;;;17.27;;
75061;SDS011;63641;46.526;24.612;2023-02-28T04:30:27;24.70;;;13.43;;
75061;SDS011;63641;46.526;24.612;2023-02-28T04:32:55;52.65;;;13.77;;
75061;SDS011;63641;46.526;24.612;2023-02-28T04:35:22;55.30;;;15.07;;
75061;SDS011;63641;46.526;24.612;2023-02-28T04:37:49;23.17;;;14.10;;
75061;SDS011;63641;46.526;24.612;2023-02-28T04:40:16;23.67;;;13.93;;
75061;SDS011;63641;46.526;24.612;2023-02-28T04:42:43;25.35;;;15.13;;
75061;SDS011;63641;46.526;24.612;2023-02-28T04:45:09;26.52;;;14.63;;
75061;SDS011;63641;46.526;24.612;2023-02-28T04:47:36;25.95;;;14.55;;
75061;SDS011;63641;46.526;24.612;2023-02-28T04:50:03;109.03;;;16.20;;
75061;SDS011;63641;46.526;24.612;2023-02-28T04:52:30;27.05;;;13.60;;
75061;SDS011;63641;46.526;24.612;2023-02-28T04:54:57;25.85;;;14.65;;
75061;SDS011;63641;46.526;24.612;2023-02-28T04:57:23;25.85;;;14.40;;
75061;SDS011;63641;46.526;24.612;2023-02-28T04:59:50;21.95;;;13.50;;
75061;SDS011;63641;46.526;24.612;2023-02-28T05:02:17;23.33;;;14.63;;
75061;SDS011;63641;46.526;24.612;2023-02-28T05:04:43;135.07;;;24.45;;
75061;SDS011;63641;46.526;24.612;2023-02-28T05:07:10;762.03;;;59.20;;
75061;SDS011;63641;46.526;24.612;2023-02-28T05:09:37;25.48;;;14.77;;
75061;SDS011;63641;46.526;24.612;2023-02-28T05:12:03;24.08;;;14.00;;
75061;SDS011;63641;46.526;24.612;2023-02-28T05:14:30;23.48;;;13.60;;
75061;SDS011;63641;46.526;24.612;2023-02-28T05:16:57;23.98;;;13.52;;
75061;SDS011;63641;46.526;24.612;2023-02-28T05:19:23;23.10;;;13.82;;
75061;SDS011;63641;46.526;24.612;2023-02-28T05:21:51;24.42;;;13.35;;
75061;SDS011;63641;46.526;24.612;2023-02-28T05:24:20;24.77;;;14.52;;
75061;SDS011;63641;46.526;24.612;2023-02-28T05:27:03;28.95;;;13.52;;
75061;SDS011;63641;46.526;24.612;2023-02-28T05:29:29;26.48;;;14.50;;
75061;SDS011;63641;46.526;24.612;2023-02-28T05:31:56;25.58;;;13.98;;
75061;SDS011;63641;46.526;24.612;2023-02-28T05:34:23;25.67;;;14.05;;
75061;SDS011;63641;46.526;24.612;2023-02-28T05:36:50;27.10;;;14.55;;
75061;SDS011;63641;46.526;24.612;2023-02-28T05:39:16;27.52;;;15.15;;
75061;SDS011;63641;46.526;24.612;2023-02-28T05:41:43;25.05;;;14.13;;
75061;SDS011;63641;46.526;24.612;2023-02-28T05:44:10;26.33;;;14.60;;
75061;SDS011;63641;46.526;24.612;2023-02-28T05:46:38;26.05;;;14.98;;
75061;SDS011;63641;46.526;24.612;2023-02-28T05:49:05;22.45;;;14.52;;
75061;SDS011;63641;46.526;24.612;2023-02-28T05:51:32;28.70;;;15.27;;
75061;SDS011;63641;46.526;24.612;2023-02-28T05:54:00;21.13;;;13.32;;
75061;SDS011;63641;46.526;24.612;2023-02-28T05:56:28;20.95;;;13.63;;
75061;SDS011;63641;46.526;24.612;2023-02-28T05:58:55;23.90;;;14.52;;
75061;SDS011;63641;46.526;24.612;2023-02-28T06:01:24;26.63;;;15.15;;
75061;SDS011;63641;46.526;24.612;2023-02-28T06:04:02;31.02;;;16.45;;
75061;SDS011;63641;46.526;24.612;2023-02-28T06:06:30;35.58;;;19.42;;
75061;SDS011;63641;46.526;24.612;2023-02-28T06:08:57;31.92;;;19.33;;
75061;SDS011;63641;46.526;24.612;2023-02-28T06:11:24;31.38;;;18.60;;
75061;SDS011;63641;46.526;24.612;2023-02-28T06:13:55;30.58;;;17.60;;
75061;SDS011;63641;46.526;24.612;2023-02-28T06:16:24;28.45;;;16.42;;
75061;SDS011;63641;46.526;24.612;2023-02-28T06:18:51;24.63;;;16.63;;
75061;SDS011;63641;46.526;24.612;2023-02-28T06:21:19;31.45;;;16.67;;
75061;SDS011;63641;46.526;24.612;2023-02-28T06:23:45;25.13;;;16.63;;
75061;SDS011;63641;46.526;24.612;2023-02-28T06:26:12;25.58;;;16.63;;
75061;SDS011;63641;46.526;24.612;2023-02-28T06:28:39;23.65;;;15.68;;
75061;SDS011;63641;46.526;24.612;2023-02-28T06:31:07;25.30;;;15.52;;
75061;SDS011;63641;46.526;24.612;2023-02-28T06:33:36;24.88;;;13.98;;
75061;SDS011;63641;46.526;24.612;2023-02-28T06:36:03;24.65;;;14.93;;
75061;SDS011;63641;46.526;24.612;2023-02-28T06:38:31;24.58;;;16.08;;
75061;SDS011;63641;46.526;24.612;2023-02-28T06:40:59;26.92;;;17.23;;
75061;SDS011;63641;46.526;24.612;2023-02-28T06:43:28;26.00;;;15.98;;
75061;SDS011;63641;46.526;24.612;2023-02-28T06:45:56;23.00;;;16.02;;
75061;SDS011;63641;46.526;24.612;2023-02-28T06:48:26;23.55;;;15.80;;
75061;SDS011;63641;46.526;24.612;2023-02-28T06:51:01;26.77;;;15.38;;
75061;SDS011;63641;46.526;24.612;2023-02-28T06:53:48;30.42;;;17.88;;
75061;SDS011;63641;46.526;24.612;2023-02-28T06:56:16;30.00;;;17.00;;
75061;SDS011;63641;46.526;24.612;2023-02-28T06:58:47;28.48;;;16.50;;
75061;SDS011;63641;46.526;24.612;2023-02-28T07:01:16;28.83;;;16.05;;
75061;SDS011;63641;46.526;24.612;2023-02-28T07:03:43;22.70;;;14.13;;
75061;SDS011;63641;46.526;24.612;2023-02-28T07:06:10;25.23;;;15.52;;
75061;SDS011;63641;46.526;24.612;2023-02-28T07:08:37;26.08;;;15.35;;
75061;SDS011;63641;46.526;24.612;2023-02-28T07:11:04;24.23;;;14.68;;
75061;SDS011;63641;46.526;24.612;2023-02-28T07:13:31;25.48;;;14.85;;
75061;SDS011;63641;46.526;24.612;2023-02-28T07:16:02;27.45;;;14.65;;
75061;SDS011;63641;46.526;24.612;2023-02-28T07:18:31;22.87;;;13.53;;
75061;SDS011;63641;46.526;24.612;2023-02-28T07:20:58;20.85;;;13.45;;
75061;SDS011;63641;46.526;24.612;2023-02-28T07:23:25;20.40;;;13.95;;
75061;SDS011;63641;46.526;24.612;2023-02-28T07:25:51;20.73;;;13.57;;
75061;SDS011;63641;46.526;24.612;2023-02-28T07:28:18;18.65;;;13.40;;
75061;SDS011;63641;46.526;24.612;2023-02-28T07:30:45;21.20;;;12.30;;
75061;SDS011;63641;46.526;24.612;2023-02-28T07:33:12;18.05;;;12.18;;
75061;SDS011;63641;46.526;24.612;2023-02-28T07:35:39;16.00;;;10.98;;
75061;SDS011;63641;46.526;24.612;2023-02-28T07:38:06;14.52;;;10.85;;
75061;SDS011;63641;46.526;24.612;2023-02-28T07:40:36;17.83;;;11.07;;
75061;SDS011;63641;46.526;24.612;2023-02-28T07:43:03;15.52;;;11.02;;
75061;SDS011;63641;46.526;24.612;2023-02-28T07:45:30;16.80;;;11.80;;
75061;SDS011;63641;46.526;24.612;2023-02-28T07:47:58;16.15;;;10.93;;
75061;SDS011;63641;46.526;24.612;2023-02-28T07:50:25;15.07;;;10.90;;
75061;SDS011;63641;46.526;24.612;2023-02-28T07:52:55;14.82;;;10.55;;
75061;SDS011;63641;46.526;24.612;2023-02-28T07:55:23;16.88;;;11.55;;
75061;SDS011;63641;46.526;24.612;2023-02-28T07:57:50;16.58;;;11.50;;
75061;SDS011;63641;46.526;24.612;2023-02-28T08:00:17;19.67;;;13.38;;
75061;SDS011;63641;46.526;24.612;2023-02-28T08:02:44;19.27;;;12.10;;
75061;SDS011;63641;46.526;24.612;2023-02-28T08:05:11;15.38;;;11.60;;
75061;SDS011;63641;46.526;24.612;2023-02-28T08:07:38;20.95;;;13.40;;
75061;SDS011;63641;46.526;24.612;2023-02-28T08:10:05;18.83;;;12.52;;
75061;SDS011;63641;46.526;24.612;2023-02-28T08:12:32;18.92;;;13.25;;
75061;SDS011;63641;46.526;24.612;2023-02-28T08:15:00;19.40;;;13.10;;
75061;SDS011;63641;46.526;24.612;2023-02-28T08:17:26;19.35;;;13.18;;
75061;SDS011;63641;46.526;24.612;2023-02-28T08:19:55;21.80;;;13.13;;
75061;SDS011;63641;46.526;24.612;2023-02-28T08:22:21;19.27;;;13.00;;
75061;SDS011;63641;46.526;24.612;2023-02-28T08:24:48;19.17;;;12.68;;
75061;SDS011;63641;46.526;24.612;2023-02-28T08:27:15;17.67;;;12.23;;
75061;SDS011;63641;46.526;24.612;2023-02-28T08:29:42;20.27;;;13.25;;
75061;SDS011;63641;46.526;24.612;2023-02-28T08:32:09;18.88;;;13.48;;
75061;SDS011;63641;46.526;24.612;2023-02-28T08:34:53;18.48;;;13.77;;
75061;SDS011;63641;46.526;24.612;2023-02-28T08:37:20;21.67;;;13.75;;
75061;SDS011;63641;46.526;24.612;2023-02-28T08:39:47;15.10;;;11.50;;
75061;SDS011;63641;46.526;24.612;2023-02-28T08:42:14;20.98;;;12.90;;
75061;SDS011;63641;46.526;24.612;2023-02-28T08:44:40;19.95;;;12.90;;
75061;SDS011;63641;46.526;24.612;2023-02-28T08:47:07;19.17;;;12.90;;
75061;SDS011;63641;46.526;24.612;2023-02-28T08:49:34;16.25;;;12.90;;
75061;SDS011;63641;46.526;24.612;2023-02-28T08:52:01;18.75;;;12.95;;
75061;SDS011;63641;46.526;24.612;2023-02-28T08:54:28;16.98;;;12.57;;
75061;SDS011;63641;46.526;24.612;2023-02-28T08:56:57;18.40;;;12.77;;
75061;SDS011;63641;46.526;24.612;2023-02-28T08:59:24;15.90;;;11.88;;
75061;SDS011;63641;46.526;24.612;2023-02-28T09:01:51;19.42;;;12.93;;
75061;SDS011;63641;46.526;24.612;2023-02-28T09:04:17;17.17;;;12.32;;
75061;SDS011;63641;46.526;24.612;2023-02-28T09:06:46;16.38;;;12.38;;
75061;SDS011;63641;46.526;24.612;2023-02-28T09:09:15;17.77;;;12.02;;
75061;SDS011;63641;46.526;24.612;2023-02-28T09:11:42;15.65;;;11.70;;
75061;SDS011;63641;46.526;24.612;2023-02-28T09:14:09;15.77;;;12.13;;
75061;SDS011;63641;46.526;24.612;2023-02-28T09:16:36;15.60;;;11.57;;
75061;SDS011;63641;46.526;24.612;2023-02-28T09:19:03;14.07;;;10.10;;
75061;SDS011;63641;46.526;24.612;2023-02-28T09:21:30;15.40;;;10.73;;
75061;SDS011;63641;46.526;24.612;2023-02-28T09:23:57;13.68;;;10.63;;
75061;SDS011;63641;46.526;24.612;2023-02-28T09:26:25;12.73;;;9.77;;
75061;SDS011;63641;46.526;24.612;2023-02-28T09:29:04;12.73;;;9.35;;
75061;SDS011;63641;46.526;24.612;2023-02-28T09:31:31;14.55;;;8.50;;
75061;SDS011;63641;46.526;24.612;2023-02-28T09:33:58;10.38;;;7.85;;
75061;SDS011;63641;46.526;24.612;2023-02-28T09:36:26;12.15;;;9.13;;
75061;SDS011;63641;46.526;24.612;2023-02-28T09:39:08;11.38;;;8.82;;
75061;SDS011;63641;46.526;24.612;2023-02-28T09:41:40;10.88;;;8.88;;
75061;SDS011;63641;46.526;24.612;2023-02-28T09:44:28;11.43;;;9.35;;
75061;SDS011;63641;46.526;24.612;2023-02-28T09:49:57;12.05;;;9.00;;
75061;SDS011;63641;46.526;24.612;2023-02-28T09:52:30;11.83;;;9.10;;
75061;SDS011;63641;46.526;24.612;2023-02-28T09:55:09;13.98;;;9.18;;
75061;SDS011;63641;46.526;24.612;2023-02-28T09:57:42;12.80;;;9.65;;
75061;SDS011;63641;46.526;24.612;2023-02-28T10:02:46;12.68;;;8.68;;
75061;SDS011;63641;46.526;24.612;2023-02-28T10:05:37;12.43;;;9.75;;
75061;SDS011;63641;46.526;24.612;2023-02-28T10:10:58;12.75;;;9.38;;
75061;SDS011;63641;46.526;24.612;2023-02-28T10:13:34;12.50;;;9.75;;
75061;SDS011;63641;46.526;24.612;2023-02-28T10:16:11;12.30;;;9.15;;
75061;SDS011;63641;46.526;24.612;2023-02-28T10:18:56;12.40;;;8.48;;
75061;SDS011;63641;46.526;24.612;2023-02-28T10:27:01;9.85;;;8.35;;
75061;SDS011;63641;46.526;24.612;2023-02-28T10:29:40;11.13;;;8.65;;
75061;SDS011;63641;46.526;24.612;2023-02-28T10:32:11;11.13;;;8.50;;
75061;SDS011;63641;46.526;24.612;2023-02-28T10:34:43;10.52;;;8.45;;
75061;SDS011;63641;46.526;24.612;2023-02-28T10:37:10;11.02;;;8.43;;
75061;SDS011;63641;46.526;24.612;2023-02-28T10:39:40;8.70;;;7.45;;
75061;SDS011;63641;46.526;24.612;2023-02-28T10:42:19;10.25;;;7.93;;
75061;SDS011;63641;46.526;24.612;2023-02-28T10:45:10;10.10;;;7.75;;
75061;SDS011;63641;46.526;24.612;2023-02-28T10:47:55;8.88;;;7.45;;
75061;SDS011;63641;46.526;24.612;2023-02-28T10:52:53;9.90;;;8.00;;
75061;SDS011;63641;46.526;24.612;2023-02-28T10:55:23;8.98;;;7.00;;
75061;SDS011;63641;46.526;24.612;2023-02-28T10:57:53;15.57;;;10.45;;
75061;SDS011;63641;46.526;24.612;2023-02-28T11:00:24;9.43;;;7.55;;
75061;SDS011;63641;46.526;24.612;2023-02-28T11:02:57;9.77;;;7.32;;
75061;SDS011;63641;46.526;24.612;2023-02-28T11:05:25;9.18;;;7.25;;
75061;SDS011;63641;46.526;24.612;2023-02-28T11:07:53;9.00;;;6.65;;
75061;SDS011;63641;46.526;24.612;2023-02-28T11:10:44;8.27;;;6.32;;
75061;SDS011;63641;46.526;24.612;2023-02-28T11:13:17;9.73;;;8.15;;
75061;SDS011;63641;46.526;24.612;2023-02-28T11:15:53;8.95;;;7.63;;
75061;SDS011;63641;46.526;24.612;2023-02-28T11:18:24;8.73;;;6.68;;
75061;SDS011;63641;46.526;24.612;2023-02-28T11:20:57;8.13;;;6.22;;
75061;SDS011;63641;46.526;24.612;2023-02-28T11:23:26;10.32;;;8.73;;
75061;SDS011;63641;46.526;24.612;2023-02-28T11:25:58;11.25;;;9.90;;
75061;SDS011;63641;46.526;24.612;2023-02-28T11:28:31;12.48;;;10.13;;
75061;SDS011;63641;46.526;24.612;2023-02-28T11:31:04;11.20;;;9.00;;
75061;SDS011;63641;46.526;24.612;2023-02-28T11:36:28;17.42;;;12.48;;
75061;SDS011;63641;46.526;24.612;2023-02-28T11:39:04;16.25;;;13.38;;
75061;SDS011;63641;46.526;24.612;2023-02-28T11:44:23;22.52;;;16.10;;
75061;SDS011;63641;46.526;24.612;2023-02-28T11:46:59;21.77;;;14.75;;
75061;SDS011;63641;46.526;24.612;2023-02-28T11:49:37;18.10;;;14.95;;
75061;SDS011;63641;46.526;24.612;2023-02-28T11:55:35;17.90;;;14.68;;
75061;SDS011;63641;46.526;24.612;2023-02-28T11:58:17;15.88;;;13.52;;
75061;SDS011;63641;46.526;24.612;2023-02-28T12:04:17;18.20;;;13.45;;
75061;SDS011;63641;46.526;24.612;2023-02-28T12:17:22;16.23;;;13.00;;
75061;SDS011;63641;46.526;24.612;2023-02-28T12:25:20;15.15;;;12.43;;
75061;SDS011;63641;46.526;24.612;2023-02-28T12:28:09;15.43;;;11.32;;
75061;SDS011;63641;46.526;24.612;2023-02-28T12:30:41;14.05;;;11.60;;
75061;SDS011;63641;46.526;24.612;2023-02-28T12:33:16;13.93;;;10.70;;
75061;SDS011;63641;46.526;24.612;2023-02-28T12:35:48;13.68;;;11.93;;
75061;SDS011;63641;46.526;24.612;2023-02-28T12:38:22;14.20;;;10.52;;
75061;SDS011;63641;46.526;24.612;2023-02-28T12:40:59;13.10;;;10.45;;
75061;SDS011;63641;46.526;24.612;2023-02-28T12:43:39;15.23;;;10.77;;
75061;SDS011;63641;46.526;24.612;2023-02-28T12:48:48;14.98;;;11.50;;
75061;SDS011;63641;46.526;24.612;2023-02-28T12:51:16;12.20;;;10.48;;
75061;SDS011;63641;46.526;24.612;2023-02-28T12:53:57;14.52;;;11.05;;
75061;SDS011;63641;46.526;24.612;2023-02-28T12:56:54;11.38;;;8.93;;
75061;SDS011;63641;46.526;24.612;2023-02-28T12:59:44;11.77;;;8.90;;
75061;SDS011;63641;46.526;24.612;2023-02-28T13:05:12;12.57;;;10.02;;
75061;SDS011;63641;46.526;24.612;2023-02-28T13:10:46;11.70;;;9.73;;
75061;SDS011;63641;46.526;24.612;2023-02-28T13:13:21;10.77;;;9.20;;
75061;SDS011;63641;46.526;24.612;2023-02-28T13:15:59;11.60;;;8.48;;
75061;SDS011;63641;46.526;24.612;2023-02-28T13:18:36;10.38;;;8.02;;
75061;SDS011;63641;46.526;24.612;2023-02-28T13:21:09;12.80;;;9.60;;
75061;SDS011;63641;46.526;24.612;2023-02-28T13:34:35;14.02;;;10.38;;
75061;SDS011;63641;46.526;24.612;2023-02-28T13:47:31;14.73;;;10.63;;
75061;SDS011;63641;46.526;24.612;2023-02-28T13:52:57;14.70;;;10.73;;
75061;SDS011;63641;46.526;24.612;2023-02-28T14:01:43;16.10;;;11.30;;
75061;SDS011;63641;46.526;24.612;2023-02-28T14:07:25;14.15;;;10.85;;
75061;SDS011;63641;46.526;24.612;2023-02-28T14:10:03;11.77;;;10.32;;
75061;SDS011;63641;46.526;24.612;2023-02-28T14:23:41;8.95;;;7.40;;
75061;SDS011;63641;46.526;24.612;2023-02-28T14:27:08;9.93;;;7.85;;
75061;SDS011;63641;46.526;24.612;2023-02-28T14:29:56;8.05;;;6.68;;
75061;SDS011;63641;46.526;24.612;2023-02-28T14:38:40;6.40;;;5.63;;
75061;SDS011;63641;46.526;24.612;2023-02-28T14:41:14;6.97;;;5.80;;
75061;SDS011;63641;46.526;24.612;2023-02-28T14:46:20;6.60;;;5.68;;
75061;SDS011;63641;46.526;24.612;2023-02-28T14:48:49;6.38;;;5.72;;
75061;SDS011;63641;46.526;24.612;2023-02-28T14:51:20;6.95;;;5.82;;
75061;SDS011;63641;46.526;24.612;2023-02-28T14:53:49;8.00;;;6.05;;
75061;SDS011;63641;46.526;24.612;2023-02-28T14:56:24;8.70;;;6.75;;
75061;SDS011;63641;46.526;24.612;2023-02-28T14:58:56;7.40;;;6.50;;
75061;SDS011;63641;46.526;24.612;2023-02-28T15:01:23;8.60;;;6.95;;
75061;SDS011;63641;46.526;24.612;2023-02-28T15:03:58;9.98;;;7.35;;
75061;SDS011;63641;46.526;24.612;2023-02-28T15:06:27;8.30;;;6.80;;
75061;SDS011;63641;46.526;24.612;2023-02-28T15:09:14;7.60;;;6.75;;
75061;SDS011;63641;46.526;24.612;2023-02-28T15:11:45;8.90;;;7.15;;
75061;SDS011;63641;46.526;24.612;2023-02-28T15:14:15;8.07;;;7.07;;
75061;SDS011;63641;46.526;24.612;2023-02-28T15:16:46;8.95;;;7.25;;
75061;SDS011;63641;46.526;24.612;2023-02-28T15:21:48;7.60;;;6.72;;
75061;SDS011;63641;46.526;24.612;2023-02-28T15:24:25;9.00;;;6.35;;
75061;SDS011;63641;46.526;24.612;2023-02-28T15:27:03;8.43;;;7.03;;
75061;SDS011;63641;46.526;24.612;2023-02-28T15:29:36;9.50;;;6.72;;
75061;SDS011;63641;46.526;24.612;2023-02-28T15:32:21;12.65;;;6.50;;
75061;SDS011;63641;46.526;24.612;2023-02-28T15:34:52;9.55;;;6.40;;
75061;SDS011;63641;46.526;24.612;2023-02-28T15:40:18;7.93;;;6.28;;
75061;SDS011;63641;46.526;24.612;2023-02-28T15:48:15;9.45;;;7.25;;
75061;SDS011;63641;46.526;24.612;2023-02-28T15:53:50;8.30;;;6.15;;
75061;SDS011;63641;46.526;24.612;2023-02-28T15:56:28;7.25;;;6.00;;
75061;SDS011;63641;46.526;24.612;2023-02-28T15:58:58;8.00;;;7.03;;
75061;SDS011;63641;46.526;24.612;2023-02-28T16:01:34;9.27;;;6.90;;
75061;SDS011;63641;46.526;24.612;2023-02-28T16:04:11;7.05;;;6.18;;
75061;SDS011;63641;46.526;24.612;2023-02-28T16:09:24;7.97;;;6.03;;
75061;SDS011;63641;46.526;24.612;2023-02-28T16:11:54;7.22;;;6.13;;
75061;SDS011;63641;46.526;24.612;2023-02-28T16:14:26;7.53;;;6.68;;
75061;SDS011;63641;46.526;24.612;2023-02-28T16:16:57;6.63;;;5.93;;
75061;SDS011;63641;46.526;24.612;2023-02-28T16:19:30;7.50;;;6.38;;
75061;SDS011;63641;46.526;24.612;2023-02-28T16:22:00;6.75;;;5.75;;
75061;SDS011;63641;46.526;24.612;2023-02-28T16:24:27;8.35;;;6.28;;
75061;SDS011;63641;46.526;24.612;2023-02-28T16:26:54;6.80;;;6.00;;
75061;SDS011;63641;46.526;24.612;2023-02-28T16:29:26;8.45;;;6.05;;
75061;SDS011;63641;46.526;24.612;2023-02-28T16:31:57;7.78;;;6.70;;
75061;SDS011;63641;46.526;24.612;2023-02-28T16:34:26;7.47;;;6.78;;
75061;SDS011;63641;46.526;24.612;2023-02-28T16:36:53;9.23;;;7.13;;
75061;SDS011;63641;46.526;24.612;2023-02-28T16:39:19;8.20;;;7.18;;
75061;SDS011;63641;46.526;24.612;2023-02-28T16:41:47;10.02;;;8.13;;
75061;SDS011;63641;46.526;24.612;2023-02-28T16:44:29;13.40;;;8.65;;
75061;SDS011;63641;46.526;24.612;2023-02-28T16:47:00;10.63;;;9.02;;
75061;SDS011;63641;46.526;24.612;2023-02-28T16:49:28;10.25;;;9.07;;
75061;SDS011;63641;46.526;24.612;2023-02-28T16:51:55;11.35;;;9.40;;
75061;SDS011;63641;46.526;24.612;2023-02-28T16:54:22;13.23;;;9.60;;
75061;SDS011;63641;46.526;24.612;2023-02-28T16:56:49;13.77;;;10.35;;
75061;SDS011;63641;46.526;24.612;2023-02-28T16:59:18;14.30;;;10.13;;
75061;SDS011;63641;46.526;24.612;2023-02-28T17:01:50;13.95;;;11.15;;
75061;SDS011;63641;46.526;24.612;2023-02-28T17:04:18;12.77;;;10.10;;
75061;SDS011;63641;46.526;24.612;2023-02-28T17:06:44;13.15;;;9.82;;
75061;SDS011;63641;46.526;24.612;2023-02-28T17:09:21;13.45;;;9.85;;
75061;SDS011;63641;46.526;24.612;2023-02-28T17:12:05;11.35;;;9.38;;
75061;SDS011;63641;46.526;24.612;2023-02-28T17:14:32;12.00;;;9.43;;
75061;SDS011;63641;46.526;24.612;2023-02-28T17:16:59;11.45;;;9.55;;